createdAt,value
2017-10-11T00:00:17.013Z,83
2017-10-11T00:01:17.024Z,82.84
2017-10-11T00:02:17.052Z,83.04
2017-10-11T00:03:17.086Z,83.04
2017-10-11T00:04:17.093Z,83.47
2017-10-11T00:05:17.109Z,83.28
2017-10-11T00:06:17.126Z,83.47
2017-10-11T00:07:17.150Z,83.28
2017-10-11T00:08:17.170Z,83.09
2017-10-11T00:09:17.236Z,83.28
2017-10-11T00:10:17.207Z,83.57
2017-10-11T00:11:17.227Z,83.18
2017-10-11T00:12:17.246Z,83.13
2017-10-11T00:13:17.267Z,83
2017-10-11T00:14:17.290Z,83.23
2017-10-11T00:15:17.312Z,83.47
2017-10-11T00:16:17.327Z,82.84
2017-10-11T00:17:17.351Z,83
2017-10-11T00:18:17.364Z,83.18
2017-10-11T00:19:17.382Z,82.61
2017-10-11T00:20:17.399Z,82.81
2017-10-11T00:21:17.423Z,82.9
2017-10-11T00:22:17.443Z,83.04
2017-10-11T00:23:17.462Z,82.28
2017-10-11T00:24:17.483Z,83
2017-10-11T00:25:17.821Z,82.94
2017-10-11T00:26:17.524Z,82.75
2017-10-11T00:27:17.556Z,82.28
2017-10-11T00:28:17.611Z,82.08
2017-10-11T00:29:17.586Z,82.08
2017-10-11T00:30:17.607Z,82.08
2017-10-11T00:31:17.625Z,82.94
2017-10-11T00:32:17.642Z,82.28
2017-10-11T00:33:17.675Z,82.46
2017-10-11T00:34:17.683Z,82.46
2017-10-11T00:35:17.710Z,81.89
2017-10-11T00:36:17.738Z,83
2017-10-11T00:37:17.747Z,82.52
2017-10-11T00:38:17.768Z,82.52
2017-10-11T00:39:17.781Z,82.81
2017-10-11T00:40:17.811Z,83
2017-10-11T00:41:17.826Z,83.57
2017-10-11T00:42:17.844Z,83.28
2017-10-11T00:43:17.909Z,83.38
2017-10-11T00:44:17.883Z,83.51
2017-10-11T00:45:17.903Z,83.18
2017-10-11T00:46:17.918Z,83.04
2017-10-11T00:47:17.940Z,82.81
2017-10-11T00:48:17.967Z,82.94
2017-10-11T00:49:17.984Z,81.89
2017-10-11T00:50:18.001Z,82.37
2017-10-11T00:51:18.025Z,82.08
2017-10-11T00:52:18.366Z,82.37
2017-10-11T00:53:18.063Z,82.46
2017-10-11T00:54:18.079Z,81.85
2017-10-11T00:55:18.102Z,82.37
2017-10-11T00:56:18.123Z,82.37
2017-10-11T00:57:18.141Z,82.28
2017-10-11T00:58:18.210Z,82.18
2017-10-11T00:59:18.180Z,82.37
2017-10-11T01:00:18.199Z,82.37
2017-10-11T01:01:18.220Z,82.37
2017-10-11T01:02:18.237Z,82.08
2017-10-11T01:03:18.258Z,82.37
2017-10-11T01:04:18.277Z,82.14
2017-10-11T01:05:18.299Z,82.08
2017-10-11T01:06:18.417Z,81.79
2017-10-11T01:07:18.346Z,81.7
2017-10-11T01:08:18.357Z,81.6
2017-10-11T01:09:18.378Z,81.41
2017-10-11T01:10:18.400Z,81.7
2017-10-11T01:11:18.420Z,81.22
2017-10-11T01:12:18.760Z,81.22
2017-10-11T01:13:18.657Z,82.08
2017-10-11T01:14:18.479Z,80.93
2017-10-11T01:15:18.498Z,80.27
2017-10-11T01:16:18.517Z,80.65
2017-10-11T01:17:18.542Z,80.07
2017-10-11T01:18:18.557Z,79.93
2017-10-11T01:19:18.578Z,80.27
2017-10-11T01:20:18.600Z,79.79
2017-10-11T01:21:18.620Z,79.5
2017-10-11T01:22:18.646Z,79.22
2017-10-11T01:23:18.658Z,79.6
2017-10-11T01:24:18.683Z,79.44
2017-10-11T01:25:18.700Z,79.69
2017-10-11T01:26:18.721Z,79.31
2017-10-11T01:27:18.740Z,79.6
2017-10-11T01:28:18.763Z,79.16
2017-10-11T01:29:18.787Z,79.41
2017-10-11T01:30:18.801Z,79.41
2017-10-11T01:31:19.435Z,78.74
2017-10-11T01:32:19.282Z,79.22
2017-10-11T01:33:18.864Z,79.22
2017-10-11T01:34:19.062Z,79.02
2017-10-11T01:35:18.902Z,79.02
2017-10-11T01:36:18.924Z,79.02
2017-10-11T01:37:18.943Z,79.6
2017-10-11T01:38:19.026Z,79.02
2017-10-11T01:39:18.983Z,79.5
2017-10-11T01:40:19.009Z,79.5
2017-10-11T01:41:19.024Z,79.6
2017-10-11T01:42:19.044Z,79.69
2017-10-11T01:43:19.070Z,79.5
2017-10-11T01:44:19.089Z,79.41
2017-10-11T01:45:19.107Z,79.02
2017-10-11T01:46:19.125Z,79.69
2017-10-11T01:47:19.147Z,79.31
2017-10-11T01:48:19.171Z,78.83
2017-10-11T01:49:19.187Z,79.02
2017-10-11T01:50:19.213Z,79.02
2017-10-11T01:51:19.229Z,79.79
2017-10-11T01:52:19.248Z,79.6
2017-10-11T01:53:19.333Z,79.69
2017-10-11T01:54:19.296Z,79.6
2017-10-11T01:55:19.315Z,79.02
2017-10-11T01:56:19.330Z,78.93
2017-10-11T01:57:19.353Z,79.31
2017-10-11T01:58:19.374Z,79.5
2017-10-11T01:59:19.398Z,79.79
2017-10-11T02:00:19.421Z,79.69
2017-10-11T02:01:19.431Z,79.17
2017-10-11T02:02:19.451Z,80.07
2017-10-11T02:03:19.470Z,79.75
2017-10-11T02:04:19.492Z,79.69
2017-10-11T02:05:19.518Z,79.31
2017-10-11T02:06:19.530Z,79.69
2017-10-11T02:07:19.551Z,79.31
2017-10-11T02:08:19.572Z,79.6
2017-10-11T02:09:19.592Z,78.93
2017-10-11T02:10:19.663Z,79.27
2017-10-11T02:11:19.971Z,78.93
2017-10-11T02:12:19.652Z,79.27
2017-10-11T02:13:19.673Z,79.36
2017-10-11T02:14:19.695Z,80.13
2017-10-11T02:15:19.713Z,79.88
2017-10-11T02:16:19.735Z,80.13
2017-10-11T02:17:19.754Z,80.04
2017-10-11T02:18:19.773Z,79.65
2017-10-11T02:19:19.794Z,79.75
2017-10-11T02:20:19.820Z,79.36
2017-10-11T02:21:19.830Z,80.41
2017-10-11T02:22:19.854Z,80.61
2017-10-11T02:23:19.871Z,79.94
2017-10-11T02:24:19.892Z,79.85
2017-10-11T02:25:19.911Z,79.27
2017-10-11T02:26:19.984Z,80.32
2017-10-11T02:27:19.953Z,79.75
2017-10-11T02:28:19.972Z,80.13
2017-10-11T02:29:19.989Z,80.22
2017-10-11T02:30:20.011Z,79.56
2017-10-11T02:31:20.066Z,79.85
2017-10-11T02:32:20.049Z,79.65
2017-10-11T02:33:20.079Z,79.27
2017-10-11T02:34:20.088Z,79.46
2017-10-11T02:35:20.110Z,78.89
2017-10-11T02:36:20.157Z,79.85
2017-10-11T02:37:20.164Z,80.22
2017-10-11T02:38:20.172Z,79.75
2017-10-11T02:39:20.191Z,79.85
2017-10-11T02:40:20.209Z,80.32
2017-10-11T02:41:20.228Z,80.51
2017-10-11T02:42:20.252Z,80.8
2017-10-11T02:43:20.268Z,80.61
2017-10-11T02:44:20.288Z,80.04
2017-10-11T02:45:20.306Z,80.32
2017-10-11T02:46:20.330Z,80.47
2017-10-11T02:47:20.346Z,80.13
2017-10-11T02:48:20.364Z,79.94
2017-10-11T02:49:20.395Z,80.32
2017-10-11T02:50:20.405Z,79.94
2017-10-11T02:51:20.752Z,80.19
2017-10-11T02:52:20.447Z,80.22
2017-10-11T02:53:20.469Z,79.99
2017-10-11T02:54:20.487Z,80.09
2017-10-11T02:55:20.505Z,80.7
2017-10-11T02:56:20.525Z,79.85
2017-10-11T02:57:20.540Z,80.28
2017-10-11T02:58:20.562Z,79.61
2017-10-11T02:59:20.635Z,79.94
2017-10-11T03:00:20.606Z,80.47
2017-10-11T03:01:20.618Z,80.19
2017-10-11T03:02:20.638Z,80.09
2017-10-11T03:03:20.660Z,80.38
2017-10-11T03:04:20.679Z,80.66
2017-10-11T03:05:20.700Z,80.95
2017-10-11T03:06:20.720Z,80.76
2017-10-11T03:07:20.739Z,81.14
2017-10-11T03:08:20.774Z,80.85
2017-10-11T03:09:20.789Z,80.76
2017-10-11T03:10:20.794Z,81.24
2017-10-11T03:11:21.138Z,80.85
2017-10-11T03:12:20.833Z,80.76
2017-10-11T03:13:20.857Z,80.66
2017-10-11T03:14:20.872Z,80.47
2017-10-11T03:15:20.894Z,80.38
2017-10-11T03:16:20.965Z,81.33
2017-10-11T03:17:20.932Z,81.14
2017-10-11T03:18:20.952Z,81.24
2017-10-11T03:19:21.293Z,80.95
2017-10-11T03:20:20.989Z,81.14
2017-10-11T03:21:21.007Z,81.33
2017-10-11T03:22:21.033Z,81.43
2017-10-11T03:23:21.061Z,82.29
2017-10-11T03:24:21.066Z,81.9
2017-10-11T03:25:21.099Z,81.9
2017-10-11T03:26:21.107Z,82.29
2017-10-11T03:27:21.125Z,82.29
2017-10-11T03:28:21.157Z,82.19
2017-10-11T03:29:21.194Z,82.48
2017-10-11T03:30:21.211Z,82.38
2017-10-11T03:31:21.209Z,81.81
2017-10-11T03:32:21.224Z,82.19
2017-10-11T03:33:21.242Z,82.15
2017-10-11T03:34:21.259Z,82.15
2017-10-11T03:35:21.280Z,82.72
2017-10-11T03:36:21.299Z,82.72
2017-10-11T03:37:21.653Z,82.63
2017-10-11T03:38:21.343Z,82.06
2017-10-11T03:39:21.366Z,82.53
2017-10-11T03:40:21.374Z,82.72
2017-10-11T03:41:21.397Z,83.01
2017-10-11T03:42:21.412Z,83.29
2017-10-11T03:43:21.434Z,83.48
2017-10-11T03:44:21.451Z,83.87
2017-10-11T03:45:21.473Z,83.39
2017-10-11T03:46:21.494Z,83.58
2017-10-11T03:47:21.514Z,83.67
2017-10-11T03:48:21.582Z,83.48
2017-10-11T03:49:21.550Z,83.58
2017-10-11T03:50:21.571Z,83.29
2017-10-11T03:51:21.588Z,84.25
2017-10-11T03:52:21.605Z,84.3
2017-10-11T03:53:21.637Z,84.49
2017-10-11T03:54:21.644Z,83.87
2017-10-11T03:55:21.668Z,83.67
2017-10-11T03:56:21.686Z,84.06
2017-10-11T03:57:21.703Z,83.48
2017-10-11T03:58:21.720Z,83.11
2017-10-11T03:59:21.744Z,83.39
2017-10-11T04:00:21.759Z,83.58
2017-10-11T04:01:21.777Z,83.96
2017-10-11T04:02:21.802Z,82.91
2017-10-11T04:03:21.866Z,83.01
2017-10-11T04:04:21.836Z,83.11
2017-10-11T04:05:21.856Z,83.01
2017-10-11T04:06:21.872Z,83.2
2017-10-11T04:07:21.890Z,83.29
2017-10-11T04:08:21.923Z,83.29
2017-10-11T04:09:21.930Z,83.11
2017-10-11T04:10:21.948Z,83.2
2017-10-11T04:11:22.296Z,82.91
2017-10-11T04:12:21.988Z,82.53
2017-10-11T04:13:22.014Z,82.53
2017-10-11T04:14:22.026Z,82.63
2017-10-11T04:15:22.044Z,82.82
2017-10-11T04:16:22.075Z,83.11
2017-10-11T04:17:22.089Z,82.53
2017-10-11T04:18:22.152Z,82.63
2017-10-11T04:19:22.121Z,81.86
2017-10-11T04:20:22.468Z,82.24
2017-10-11T04:21:22.161Z,82.43
2017-10-11T04:22:22.174Z,82.91
2017-10-11T04:23:22.201Z,83.11
2017-10-11T04:24:22.216Z,83.11
2017-10-11T04:25:22.243Z,82.91
2017-10-11T04:26:22.260Z,83.2
2017-10-11T04:27:22.273Z,82.91
2017-10-11T04:28:22.292Z,83.39
2017-10-11T04:29:22.313Z,82.91
2017-10-11T04:30:22.334Z,83.2
2017-10-11T04:31:22.351Z,83.29
2017-10-11T04:32:22.376Z,83.29
2017-10-11T04:33:22.439Z,83.29
2017-10-11T04:34:22.407Z,83.11
2017-10-11T04:35:22.434Z,82.91
2017-10-11T04:36:22.446Z,83.06
2017-10-11T04:37:22.790Z,83.35
2017-10-11T04:38:22.493Z,83.54
2017-10-11T04:39:22.837Z,83.73
2017-10-11T04:40:22.521Z,83.92
2017-10-11T04:41:22.542Z,83.64
2017-10-11T04:42:22.562Z,83.73
2017-10-11T04:43:22.580Z,83.64
2017-10-11T04:44:22.599Z,83.83
2017-10-11T04:45:22.619Z,83.64
2017-10-11T04:46:22.643Z,84.2
2017-10-11T04:47:22.655Z,84.49
2017-10-11T04:48:22.729Z,83.83
2017-10-11T04:49:22.694Z,84.69
2017-10-11T04:50:22.713Z,83.83
2017-10-11T04:51:22.734Z,84.2
2017-10-11T04:52:22.751Z,84.3
2017-10-11T04:53:22.788Z,84.59
2017-10-11T04:54:22.792Z,84.88
2017-10-11T04:55:22.808Z,84.97
2017-10-11T04:56:22.833Z,85.16
2017-10-11T04:57:22.847Z,84.59
2017-10-11T04:58:22.865Z,84.49
2017-10-11T04:59:22.883Z,84.4
2017-10-11T05:00:22.903Z,84.69
2017-10-11T05:01:22.923Z,85.06
2017-10-11T05:02:22.941Z,85.54
2017-10-11T05:03:22.968Z,85.25
2017-10-11T05:04:22.979Z,85.69
2017-10-11T05:05:23.002Z,85.88
2017-10-11T05:06:23.067Z,85.45
2017-10-11T05:07:23.036Z,85.83
2017-10-11T05:08:23.069Z,85.54
2017-10-11T05:09:23.082Z,85.35
2017-10-11T05:10:23.092Z,85.93
2017-10-11T05:11:23.109Z,85.93
2017-10-11T05:12:23.134Z,85.73
2017-10-11T05:13:23.156Z,86.07
2017-10-11T05:14:23.173Z,85.5
2017-10-11T05:15:23.190Z,85.54
2017-10-11T05:16:23.206Z,85.54
2017-10-11T05:17:23.227Z,85.93
2017-10-11T05:18:23.240Z,85.6
2017-10-11T05:19:23.261Z,85.6
2017-10-11T05:20:23.279Z,85.78
2017-10-11T05:21:23.298Z,85.54
2017-10-11T05:22:23.320Z,85.41
2017-10-11T05:23:23.342Z,85.88
2017-10-11T05:24:23.360Z,86.02
2017-10-11T05:25:23.375Z,85.6
2017-10-11T05:26:23.397Z,85.31
2017-10-11T05:27:23.414Z,86.07
2017-10-11T05:28:23.428Z,85.54
2017-10-11T05:29:23.448Z,85.54
2017-10-11T05:30:23.463Z,85.54
2017-10-11T05:31:23.485Z,85.45
2017-10-11T05:32:23.503Z,85.5
2017-10-11T05:33:23.524Z,85.69
2017-10-11T05:34:23.542Z,85.97
2017-10-11T05:35:23.561Z,85.5
2017-10-11T05:36:23.577Z,85.6
2017-10-11T05:37:23.599Z,86.07
2017-10-11T05:38:23.624Z,85.88
2017-10-11T05:39:23.640Z,85.54
2017-10-11T05:40:23.654Z,85.54
2017-10-11T05:41:23.722Z,85.35
2017-10-11T05:42:23.688Z,85.06
2017-10-11T05:43:23.707Z,84.97
2017-10-11T05:44:23.729Z,84.88
2017-10-11T05:45:23.746Z,84.49
2017-10-11T05:46:23.767Z,84.01
2017-10-11T05:47:23.787Z,84.4
2017-10-11T05:48:23.805Z,84.01
2017-10-11T05:49:23.884Z,84.3
2017-10-11T05:50:23.849Z,83.92
2017-10-11T05:51:23.880Z,83.64
2017-10-11T05:52:23.880Z,83.92
2017-10-11T05:53:24.035Z,83.83
2017-10-11T05:54:23.926Z,83.73
2017-10-11T05:55:23.936Z,83.92
2017-10-11T05:56:23.953Z,83.16
2017-10-11T05:57:24.022Z,83.44
2017-10-11T05:58:23.990Z,83.92
2017-10-11T05:59:24.014Z,83.25
2017-10-11T06:00:24.038Z,83.44
2017-10-11T06:01:24.051Z,82.87
2017-10-11T06:02:24.069Z,83.35
2017-10-11T06:03:24.087Z,82.49
2017-10-11T06:04:24.125Z,82.59
2017-10-11T06:05:24.123Z,82.68
2017-10-11T06:06:24.142Z,82.72
2017-10-11T06:07:24.266Z,82.87
2017-10-11T06:08:24.199Z,82.68
2017-10-11T06:09:24.209Z,82.68
2017-10-11T06:10:24.558Z,81.86
2017-10-11T06:11:24.241Z,81.96
2017-10-11T06:12:24.260Z,82.24
2017-10-11T06:13:24.277Z,81.77
2017-10-11T06:14:24.296Z,82.06
2017-10-11T06:15:24.315Z,81.29
2017-10-11T06:16:24.337Z,81.86
2017-10-11T06:17:24.356Z,82.24
2017-10-11T06:18:24.373Z,82.06
2017-10-11T06:19:24.392Z,81.86
2017-10-11T06:20:24.423Z,81.48
2017-10-11T06:21:24.530Z,81.1
2017-10-11T06:22:24.576Z,81.48
2017-10-11T06:23:24.517Z,81.29
2017-10-11T06:24:24.581Z,81.58
2017-10-11T06:25:24.580Z,81.29
2017-10-11T06:26:24.525Z,81.38
2017-10-11T06:27:24.681Z,81.29
2017-10-11T06:28:24.563Z,81.1
2017-10-11T06:29:24.582Z,81.29
2017-10-11T06:30:24.779Z,81.58
2017-10-11T06:31:24.850Z,81.48
2017-10-11T06:32:24.643Z,81.1
2017-10-11T06:33:24.663Z,81.01
2017-10-11T06:34:24.688Z,80.91
2017-10-11T06:35:24.821Z,80.62
2017-10-11T06:36:24.721Z,80.72
2017-10-11T06:37:24.743Z,81.01
2017-10-11T06:38:24.763Z,80.72
2017-10-11T06:39:24.779Z,80.43
2017-10-11T06:40:24.802Z,80.15
2017-10-11T06:41:24.920Z,80.53
2017-10-11T06:42:25.017Z,80.15
2017-10-11T06:43:24.864Z,79.86
2017-10-11T06:44:25.019Z,79.86
2017-10-11T06:45:24.965Z,79.71
2017-10-11T06:46:24.916Z,79.38
2017-10-11T06:47:24.935Z,79.57
2017-10-11T06:48:24.959Z,80.24
2017-10-11T06:49:24.975Z,79.19
2017-10-11T06:50:24.993Z,79.8
2017-10-11T06:51:25.074Z,80.15
2017-10-11T06:52:25.036Z,79.67
2017-10-11T06:53:25.052Z,79.28
2017-10-11T06:54:25.070Z,79.38
2017-10-11T06:55:25.090Z,79.77
2017-10-11T06:56:25.109Z,79.19
2017-10-11T06:57:25.531Z,79.28
2017-10-11T06:58:25.230Z,79.33
2017-10-11T06:59:25.175Z,79.61
2017-10-11T07:00:25.190Z,78.94
2017-10-11T07:01:25.212Z,78.56
2017-10-11T07:02:25.409Z,78.75
2017-10-11T07:03:25.348Z,77.99
2017-10-11T07:04:25.560Z,78.09
2017-10-11T07:05:25.292Z,77.61
2017-10-11T07:06:25.320Z,77.7
2017-10-11T07:07:25.375Z,77.26
2017-10-11T07:08:25.469Z,77.45
2017-10-11T07:09:25.785Z,77.17
2017-10-11T07:10:25.432Z,76.88
2017-10-11T07:11:25.458Z,76.64
2017-10-11T07:12:25.754Z,76.06
2017-10-11T07:13:25.881Z,75.3
2017-10-11T07:14:25.601Z,74.44
2017-10-11T07:15:25.831Z,74.63
2017-10-11T07:16:26.017Z,74.05
2017-10-11T07:17:25.531Z,73.99
2017-10-11T07:18:25.549Z,73.04
2017-10-11T07:19:25.570Z,72.85
2017-10-11T07:20:25.617Z,73.43
2017-10-11T07:21:25.607Z,73.43
2017-10-11T07:22:25.649Z,72.85
2017-10-11T07:23:25.988Z,73.04
2017-10-11T07:24:25.998Z,72.66
2017-10-11T07:25:25.691Z,73.23
2017-10-11T07:26:25.851Z,73.04
2017-10-11T07:27:25.733Z,73.14
2017-10-11T07:28:25.803Z,73.33
2017-10-11T07:29:26.099Z,72.94
2017-10-11T07:30:25.803Z,72.18
2017-10-11T07:31:25.883Z,72.18
2017-10-11T07:32:25.839Z,71.99
2017-10-11T07:33:25.859Z,71.61
2017-10-11T07:34:25.879Z,71.61
2017-10-11T07:35:25.999Z,71.7
2017-10-11T07:36:25.919Z,71.89
2017-10-11T07:37:25.951Z,72.08
2017-10-11T07:38:26.328Z,71.99
2017-10-11T07:39:25.982Z,71.89
2017-10-11T07:40:26.009Z,71.64
2017-10-11T07:41:26.045Z,71.07
2017-10-11T07:42:26.047Z,71.07
2017-10-11T07:43:26.116Z,71.07
2017-10-11T07:44:26.088Z,70.78
2017-10-11T07:45:26.427Z,70.3
2017-10-11T07:46:26.458Z,70.3
2017-10-11T07:47:26.169Z,70.87
2017-10-11T07:48:26.176Z,70.78
2017-10-11T07:49:26.594Z,70.5
2017-10-11T07:50:26.565Z,70.4
2017-10-11T07:51:26.236Z,70.11
2017-10-11T07:52:26.266Z,69.73
2017-10-11T07:53:26.300Z,69.54
2017-10-11T07:54:26.299Z,69.64
2017-10-11T07:55:26.325Z,70.21
2017-10-11T07:56:26.706Z,69.82
2017-10-11T07:57:26.366Z,70.01
2017-10-11T07:58:26.389Z,69.64
2017-10-11T07:59:26.492Z,69.64
2017-10-11T08:00:26.431Z,69.54
2017-10-11T08:01:26.451Z,69.54
2017-10-11T08:02:26.593Z,69.44
2017-10-11T08:03:26.494Z,69.15
2017-10-11T08:04:26.519Z,69.15
2017-10-11T08:05:26.533Z,69.06
2017-10-11T08:06:26.890Z,69
2017-10-11T08:07:26.579Z,68.23
2017-10-11T08:08:26.603Z,67.85
2017-10-11T08:09:26.908Z,68.04
2017-10-11T08:10:26.641Z,67.66
2017-10-11T08:11:26.965Z,67.11
2017-10-11T08:12:26.687Z,66.93
2017-10-11T08:13:26.708Z,66.83
2017-10-11T08:14:26.775Z,66.25
2017-10-11T08:15:26.751Z,66.45
2017-10-11T08:16:26.817Z,65.78
2017-10-11T08:17:27.117Z,65.33
2017-10-11T08:18:26.813Z,64.56
2017-10-11T08:19:26.834Z,64.76
2017-10-11T08:20:26.856Z,64.56
2017-10-11T08:21:26.920Z,64.47
2017-10-11T08:22:26.900Z,64.95
2017-10-11T08:23:27.015Z,63.99
2017-10-11T08:24:26.950Z,64.09
2017-10-11T08:25:26.988Z,64.56
2017-10-11T08:26:26.986Z,64.37
2017-10-11T08:27:27.012Z,63.7
2017-10-11T08:28:27.035Z,64.18
2017-10-11T08:29:27.055Z,63.32
2017-10-11T08:30:27.130Z,62.87
2017-10-11T08:31:27.437Z,62.87
2017-10-11T08:32:27.126Z,63.16
2017-10-11T08:33:27.148Z,63.16
2017-10-11T08:34:27.170Z,63.06
2017-10-11T08:35:27.192Z,62.2
2017-10-11T08:36:27.211Z,62.39
2017-10-11T08:37:27.559Z,62.39
2017-10-11T08:38:27.263Z,62.39
2017-10-11T08:39:27.284Z,62.52
2017-10-11T08:40:27.298Z,62.49
2017-10-11T08:41:27.323Z,62.42
2017-10-11T08:42:27.348Z,62.33
2017-10-11T08:43:27.374Z,61.56
2017-10-11T08:44:27.393Z,62.42
2017-10-11T08:45:27.425Z,61.56
2017-10-11T08:46:27.491Z,61.75
2017-10-11T08:47:27.474Z,61.75
2017-10-11T08:48:27.562Z,61.08
2017-10-11T08:49:27.824Z,61.08
2017-10-11T08:50:27.537Z,60.44
2017-10-11T08:51:27.552Z,60.35
2017-10-11T08:52:27.895Z,61.11
2017-10-11T08:53:27.595Z,61.3
2017-10-11T08:54:27.623Z,60.35
2017-10-11T08:55:27.644Z,60.72
2017-10-11T08:56:27.665Z,60.18
2017-10-11T08:57:27.689Z,59.89
2017-10-11T08:58:27.716Z,59.89
2017-10-11T08:59:27.738Z,59.03
2017-10-11T09:00:27.762Z,59.12
2017-10-11T09:01:27.836Z,59.22
2017-10-11T09:02:27.811Z,58.94
2017-10-11T09:03:27.849Z,58.84
2017-10-11T09:04:27.868Z,59.03
2017-10-11T09:05:27.875Z,58.94
2017-10-11T09:06:27.908Z,58.64
2017-10-11T09:07:27.926Z,58.84
2017-10-11T09:08:27.952Z,59.32
2017-10-11T09:09:27.975Z,58.64
2017-10-11T09:10:27.995Z,58.55
2017-10-11T09:11:28.020Z,58.84
2017-10-11T09:12:28.040Z,58.45
2017-10-11T09:13:28.152Z,59.03
2017-10-11T09:14:28.094Z,59.03
2017-10-11T09:15:28.225Z,58.67
2017-10-11T09:16:28.137Z,58.45
2017-10-11T09:17:28.159Z,58.07
2017-10-11T09:18:28.183Z,57.9
2017-10-11T09:19:28.260Z,57.33
2017-10-11T09:20:28.337Z,57.4
2017-10-11T09:21:28.257Z,57.23
2017-10-11T09:22:28.283Z,57.3
2017-10-11T09:23:28.377Z,57.88
2017-10-11T09:24:28.327Z,57.59
2017-10-11T09:25:28.620Z,57.21
2017-10-11T09:26:28.839Z,57.11
2017-10-11T09:27:28.644Z,56.73
2017-10-11T09:28:28.512Z,56.44
2017-10-11T09:29:28.506Z,56.15
2017-10-11T09:30:28.473Z,56.44
2017-10-11T09:31:28.498Z,56.46
2017-10-11T09:32:28.524Z,55.79
2017-10-11T09:33:28.638Z,55.99
2017-10-11T09:34:28.615Z,55.69
2017-10-11T09:35:28.591Z,55.96
2017-10-11T09:36:28.615Z,55.99
2017-10-11T09:37:28.639Z,56.08
2017-10-11T09:38:28.661Z,55.34
2017-10-11T09:39:28.690Z,55.15
2017-10-11T09:40:28.722Z,54.96
2017-10-11T09:41:28.752Z,54.77
2017-10-11T09:42:28.760Z,54.47
2017-10-11T09:43:28.784Z,54.19
2017-10-11T09:44:28.812Z,54.77
2017-10-11T09:45:28.833Z,54.86
2017-10-11T09:46:28.859Z,54.38
2017-10-11T09:47:28.885Z,54.38
2017-10-11T09:48:29.231Z,54.57
2017-10-11T09:49:28.931Z,54.47
2017-10-11T09:50:28.953Z,53.8
2017-10-11T09:51:28.980Z,53.35
2017-10-11T09:52:29.003Z,53.83
2017-10-11T09:53:29.038Z,53.45
2017-10-11T09:54:29.051Z,53.9
2017-10-11T09:55:29.077Z,53.8
2017-10-11T09:56:29.122Z,54.38
2017-10-11T09:57:29.135Z,53.9
2017-10-11T09:58:29.148Z,54.38
2017-10-11T09:59:29.182Z,53.9
2017-10-11T10:00:29.204Z,54.57
2017-10-11T10:01:29.229Z,53.13
2017-10-11T10:02:29.247Z,54
2017-10-11T10:03:29.278Z,54.22
2017-10-11T10:04:29.319Z,52.87
2017-10-11T10:05:29.321Z,52.32
2017-10-11T10:06:29.345Z,52.42
2017-10-11T10:07:29.372Z,51.93
2017-10-11T10:08:29.450Z,51.57
2017-10-11T10:09:29.420Z,51.29
2017-10-11T10:10:29.451Z,50.81
2017-10-11T10:11:29.470Z,51.19
2017-10-11T10:12:29.506Z,50.9
2017-10-11T10:13:29.523Z,50.81
2017-10-11T10:14:29.554Z,49.96
2017-10-11T10:15:29.580Z,49.58
2017-10-11T10:16:29.611Z,49.58
2017-10-11T10:17:29.631Z,49.1
2017-10-11T10:18:29.656Z,48.35
2017-10-11T10:19:29.688Z,46.73
2017-10-11T10:20:29.713Z,46.47
2017-10-11T10:21:29.741Z,46.47
2017-10-11T10:22:29.772Z,45.34
2017-10-11T10:23:29.792Z,44.66
2017-10-11T10:24:29.874Z,44.76
2017-10-11T10:25:29.869Z,44.56
2017-10-11T10:26:29.880Z,44.46
2017-10-11T10:27:29.910Z,43.81
2017-10-11T10:28:29.981Z,42.58
2017-10-11T10:29:29.972Z,41.93
2017-10-11T10:30:30.322Z,41.25
2017-10-11T10:31:30.025Z,40.5
2017-10-11T10:32:30.057Z,40.4
2017-10-11T10:33:30.089Z,40.4
2017-10-11T10:34:30.116Z,40.5
2017-10-11T10:35:30.148Z,40.5
2017-10-11T10:36:30.180Z,39.82
2017-10-11T10:37:30.211Z,40.01
2017-10-11T10:38:30.253Z,39.82
2017-10-11T10:39:30.274Z,39.34
2017-10-11T10:40:30.309Z,39.26
2017-10-11T10:41:30.383Z,39.04
2017-10-11T10:42:30.363Z,39.06
2017-10-11T10:43:30.393Z,38.31
2017-10-11T10:44:30.428Z,37.36
2017-10-11T10:45:30.461Z,37.73
2017-10-11T10:46:30.493Z,37.15
2017-10-11T10:47:30.520Z,37.26
2017-10-11T10:48:30.874Z,36.98
2017-10-11T10:49:30.585Z,36.58
2017-10-11T10:50:30.617Z,36.12
2017-10-11T10:51:30.654Z,35.36
2017-10-11T10:52:30.679Z,34.8
2017-10-11T10:53:30.711Z,33.94
2017-10-11T10:54:30.753Z,33.75
2017-10-11T10:55:30.770Z,33.94
2017-10-11T10:56:30.853Z,33.07
2017-10-11T10:57:30.833Z,32.5
2017-10-11T10:58:30.867Z,33.18
2017-10-11T10:59:30.899Z,33.56
2017-10-11T11:00:30.934Z,33.54
2017-10-11T11:01:30.965Z,33.34
2017-10-11T11:02:30.996Z,33.26
2017-10-11T11:03:31.034Z,32.49
2017-10-11T11:04:31.059Z,32.59
2017-10-11T11:05:31.097Z,31.34
2017-10-11T11:06:31.125Z,31.45
2017-10-11T11:07:31.487Z,30.97
2017-10-11T11:08:31.191Z,30.97
2017-10-11T11:09:31.232Z,30.29
2017-10-11T11:10:31.256Z,30.5
2017-10-11T11:11:31.342Z,30.22
2017-10-11T11:12:31.322Z,30.22
2017-10-11T11:13:31.353Z,29.65
2017-10-11T11:14:31.393Z,29.28
2017-10-11T11:15:31.418Z,28.2
2017-10-11T11:16:31.452Z,28.13
2017-10-11T11:17:31.488Z,28.2
2017-10-11T11:18:31.525Z,27.98
2017-10-11T11:19:31.573Z,28.47
2017-10-11T11:20:31.586Z,28.29
2017-10-11T11:21:31.615Z,28.78
2017-10-11T11:22:31.653Z,28.89
2017-10-11T11:23:31.684Z,27.73
2017-10-11T11:24:31.721Z,26.79
2017-10-11T11:25:31.750Z,26.98
2017-10-11T11:26:31.783Z,27.94
2017-10-11T11:27:32.142Z,27.83
2017-10-11T11:28:31.904Z,28.02
2017-10-11T11:29:31.884Z,28.3
2017-10-11T11:30:31.921Z,29.06
2017-10-11T11:31:31.950Z,28.2
2017-10-11T11:32:31.984Z,27.73
2017-10-11T11:33:32.024Z,27.55
2017-10-11T11:34:32.054Z,27.16
2017-10-11T11:35:32.115Z,27.62
2017-10-11T11:36:32.119Z,26.86
2017-10-11T11:37:32.153Z,27.25
2017-10-11T11:38:32.190Z,27.05
2017-10-11T11:39:32.300Z,27.15
2017-10-11T11:40:32.279Z,25.99
2017-10-11T11:41:32.292Z,26.78
2017-10-11T11:42:32.356Z,26.95
2017-10-11T11:43:32.362Z,27.06
2017-10-11T11:44:32.444Z,26.39
2017-10-11T11:45:32.426Z,26.1
2017-10-11T11:46:32.553Z,25.14
2017-10-11T11:47:32.494Z,24.77
2017-10-11T11:48:32.534Z,25.34
2017-10-11T11:49:32.564Z,24.49
2017-10-11T11:50:32.598Z,24.11
2017-10-11T11:51:32.631Z,23.43
2017-10-11T11:52:32.674Z,23.54
2017-10-11T11:53:32.706Z,23.26
2017-10-11T11:54:32.759Z,22.69
2017-10-11T11:55:32.797Z,22.76
2017-10-11T11:56:32.812Z,22.59
2017-10-11T11:57:32.848Z,22.31
2017-10-11T11:58:32.889Z,21.14
2017-10-11T11:59:32.917Z,20.47
2017-10-11T12:00:32.958Z,21.35
2017-10-11T12:01:32.994Z,21.92
2017-10-11T12:02:33.258Z,22.48
2017-10-11T12:03:33.057Z,22.95
2017-10-11T12:04:33.694Z,23.35
2017-10-11T12:05:33.132Z,22.56
2017-10-11T12:06:33.184Z,23.05
2017-10-11T12:07:33.198Z,22.28
2017-10-11T12:08:33.558Z,21.81
2017-10-11T12:09:33.288Z,20.56
2017-10-11T12:10:33.327Z,19.98
2017-10-11T12:11:33.342Z,19.8
2017-10-11T12:12:33.379Z,19.6
2017-10-11T12:13:33.415Z,19.79
2017-10-11T12:14:33.456Z,19.31
2017-10-11T12:15:33.541Z,18.64
2017-10-11T12:16:33.527Z,18.06
2017-10-11T12:17:33.557Z,17.96
2017-10-11T12:18:33.596Z,18.73
2017-10-11T12:19:33.630Z,19.31
2017-10-11T12:20:33.669Z,20.07
2017-10-11T12:21:34.075Z,19.67
2017-10-11T12:22:33.757Z,20.34
2017-10-11T12:23:33.780Z,20.17
2017-10-11T12:24:33.824Z,20.17
2017-10-11T12:25:33.855Z,20.45
2017-10-11T12:26:33.899Z,20.06
2017-10-11T12:27:33.932Z,20.26
2017-10-11T12:28:34.019Z,19.96
2017-10-11T12:29:34.044Z,19.01
2017-10-11T12:30:34.094Z,19.98
2017-10-11T12:31:34.064Z,19.2
2017-10-11T12:32:34.164Z,19.2
2017-10-11T12:33:34.234Z,19.1
2017-10-11T12:34:34.243Z,20.17
2017-10-11T12:35:34.212Z,21.12
2017-10-11T12:36:34.250Z,21.31
2017-10-11T12:37:34.285Z,21
2017-10-11T12:38:34.327Z,20.24
2017-10-11T12:39:34.675Z,20.84
2017-10-11T12:40:34.425Z,21.89
2017-10-11T12:41:34.426Z,21.99
2017-10-11T12:42:34.464Z,21.8
2017-10-11T12:43:34.498Z,21.03
2017-10-11T12:44:34.539Z,20.35
2017-10-11T12:45:34.629Z,20.47
2017-10-11T12:46:34.615Z,20.27
2017-10-11T12:47:34.656Z,20.26
2017-10-11T12:48:34.679Z,20.37
2017-10-11T12:49:34.725Z,19.21
2017-10-11T12:50:34.752Z,18.64
2017-10-11T12:51:34.794Z,18.64
2017-10-11T12:52:34.840Z,19.02
2017-10-11T12:53:34.873Z,18.34
2017-10-11T12:54:34.926Z,18.06
2017-10-11T12:55:34.938Z,18.56
2017-10-11T12:56:34.970Z,17.3